Anshun, Guizhou

8:09 AM CST on October 02, 2014 (GMT +0800)
Guiyang | Change Station
CLOSE
Current Station
Airport
Location: Guiyang,
Elevation: 3734 ft
Nearby Weather Stations

Elev 3734 ft 26.54 °N, 106.80 °E | Updated 9 minutes ago

Overcast
Overcast
66 °F
Feels Like 66 °F
N
2
Wind Variable Wind from Variable

Today
High -- | Low -- °F
--% Chance of Precip.
Yesterday
High -- | Low -- °F
Precip. -- in
6:48 AM 6:42 PM
First Quarter, 52% visible
Pressure 30.09 in
Visibility 6.2 miles
Clouds Scattered Clouds 800 ft
Mostly Cloudy 1500 ft
Overcast 3300 ft
Dew Point 64 °F
Humidity 94%
Rainfall 0.00 in
Snow Depth Not available.
UV 0 out of 12
Pollen Not available.
Air Quality Not available.
Flu Activity Not available.
METAR ZUGY 010000Z VRB01MPS 9999 SCT008 BKN015 OVC033 19/18 Q1019 NOSIG

More Conditions Fewer Conditions

Pressure 30.09 in
Visibility 6.2 miles
Clouds Scattered Clouds 800 ft
Mostly Cloudy 1500 ft
Overcast 3300 ft
Dew Point 64 °F
Humidity 94%
Rainfall 0.00 in
Snow Depth Not available.
UV 0 out of 12
Pollen Not available.
Air Quality Not available.
Flu Activity Not available.
METAR ZUGY 010000Z VRB01MPS 9999 SCT008 BKN015 OVC033 19/18 Q1019 NOSIG

More Conditions Fewer Conditions

10-Day Weather Forecast

Almanac

Astronomy

Oct. 02, 2014 Rise Set
Actual Time 6:48 AM CST 6:42 PM CST
Civil Twilight 6:25 AM CST 7:05 PM CST
Nautical Twilight 5:58 AM CST 7:31 PM CST
Astronomical Twilight 5:32 AM CST 7:58 PM CST
Moon 1:50 PM CST 12:04 AM CST
Length of Visible Light 12h 39m
Length of Day
11h 53m
Tomorrow will be 1m 31s shorter.
First Quarter, 52% of the Moon is Illuminated
Oct 1
First Quarter
Oct 8
Full
Oct 15
Last Quarter
Oct 23
New
Oct 30
First Quarter

Yesterday's Extremes

Country Highs Country Lows

Community

WunderPhotos

Upload Photos

1,758,094 photos uploaded!

WunderBlogs® & News

Nearby

Snow Depth

Not available.

Earthquake Activity

City Distance Mag. Time & Date
No recent earthquake activity has been reported nearby.
Minimum magnitude displayed is 2.5.

Coastal Water Temperatures

Place Temperature
No Stations Reporting

Nearby Weather Stations